Kansas City, MO

1:01 PM CDT on September 17, 2014 (GMT -0500)
Westheight | Change Station
CLOSE
Current Station
Personal Weather Station
Location: Kansas City, KS
Elevation: 893 ft
Nearby Weather Stations

Elev 893 ft 39.12 °N, 94.65 °W | Updated 1 minute ago

Overcast
Overcast
67.1 °F
Feels Like 67.1 °F
N
0.0
Wind Variable Wind from East
Gusts 0.0 mph

Today
High -- | Low -- °F
--% Chance of Precip.
Yesterday
High -- | Low -- °F
Precip. -- in
7:01 AM 7:23 PM
Waning Crescent, 34% visible
Pressure 29.92 in
Visibility 6.0 miles
Clouds Overcast 500 ft
Dew Point 63 °F
Humidity 88%
Rainfall 0.16 in
Snow Depth Not available.
UV 2 out of 12
Pollen 4.30 out of 12
Ozone Good
PM2.5 Moderate
Flu Activity Not available.
METAR KMKC 171654Z 08006KT 6SM BR OVC005 20/18 A2993 RMK AO2 SLP132 T02000178

More Conditions Fewer Conditions

Pressure 29.92 in
Visibility 6.0 miles
Clouds Overcast 500 ft
Dew Point 63 °F
Humidity 88%
Rainfall 0.16 in
Snow Depth Not available.
UV 2 out of 12
Pollen 4.30 out of 12
Ozone Good
PM2.5 Moderate
Flu Activity Not available.
METAR KMKC 171654Z 08006KT 6SM BR OVC005 20/18 A2993 RMK AO2 SLP132 T02000178

More Conditions Fewer Conditions

10-Day Weather Forecast

Almanac

Astronomy

Sep. 17, 2014 Rise Set
Actual Time 7:01 AM CDT 7:23 PM CDT
Civil Twilight 6:34 AM CDT 7:50 PM CDT
Nautical Twilight 6:03 AM CDT 8:21 PM CDT
Astronomical Twilight 5:31 AM CDT 8:53 PM CDT
Moon 1:04 AM CDT 3:32 PM CDT
Length of Visible Light 13h 15m
Length of Day
12h 21m
Tomorrow will be 2m 32s shorter.
Waning Crescent, 34% of the Moon is Illuminated
Today
Waning Crescent
Sep 24
New
Oct 1
First Quarter
Oct 8
Full
Oct 15
Last Quarter

Today's Extremes

State Highs State Lows

Community

WunderPhotos

Upload Photos

1,754,112 photos uploaded!

WunderBlogs® & News

Nearby

Air Quality

  Air Quality AQ Index Pollutant
Yesterday Good
OZONE
Yesterday Good
PM2.5
Current Moderate
PM2.5
Current Good
OZONE
Wednesday Good
OZONE

Snow Depth

Station Depth Elevation
No new snow has been reported.

Earthquake Activity

City Distance Mag. Time & Date
No recent earthquake activity has been reported nearby.
Minimum magnitude displayed is 2.5.

Coastal Water Temperatures

Place Temperature
No Stations Reporting

Nearby Weather Stations